sensor_id;sensor_type;location;lat;lon;timestamp;P1;durP1;ratioP1;P2;durP2;ratioP2
16543;SDS011;8384;47.996;7.786;2024-01-30T00:02:04;4.67;;;2.13;;
16543;SDS011;8384;47.996;7.786;2024-01-30T00:04:30;3.73;;;2.40;;
16543;SDS011;8384;47.996;7.786;2024-01-30T00:06:55;3.10;;;2.37;;
16543;SDS011;8384;47.996;7.786;2024-01-30T00:09:20;4.10;;;2.70;;
16543;SDS011;8384;47.996;7.786;2024-01-30T00:11:45;2.90;;;2.10;;
16543;SDS011;8384;47.996;7.786;2024-01-30T00:14:11;3.47;;;2.43;;
16543;SDS011;8384;47.996;7.786;2024-01-30T00:16:36;4.83;;;3.20;;
16543;SDS011;8384;47.996;7.786;2024-01-30T00:19:01;3.03;;;2.23;;
16543;SDS011;8384;47.996;7.786;2024-01-30T00:21:27;3.43;;;2.30;;
16543;SDS011;8384;47.996;7.786;2024-01-30T00:23:53;3.40;;;2.33;;
16543;SDS011;8384;47.996;7.786;2024-01-30T00:26:18;3.10;;;2.50;;
16543;SDS011;8384;47.996;7.786;2024-01-30T00:28:43;2.90;;;2.20;;
16543;SDS011;8384;47.996;7.786;2024-01-30T00:31:08;3.00;;;2.70;;
16543;SDS011;8384;47.996;7.786;2024-01-30T00:33:37;4.33;;;3.10;;
16543;SDS011;8384;47.996;7.786;2024-01-30T00:36:03;4.03;;;3.37;;
16543;SDS011;8384;47.996;7.786;2024-01-30T00:38:28;3.00;;;2.70;;
16543;SDS011;8384;47.996;7.786;2024-01-30T00:40:53;3.67;;;2.70;;
16543;SDS011;8384;47.996;7.786;2024-01-30T00:43:19;3.30;;;2.60;;
16543;SDS011;8384;47.996;7.786;2024-01-30T00:45:46;2.63;;;2.00;;
16543;SDS011;8384;47.996;7.786;2024-01-30T00:48:11;2.97;;;2.00;;
16543;SDS011;8384;47.996;7.786;2024-01-30T00:50:36;2.10;;;1.90;;
16543;SDS011;8384;47.996;7.786;2024-01-30T00:53:01;3.83;;;1.90;;
16543;SDS011;8384;47.996;7.786;2024-01-30T00:55:27;6.17;;;2.13;;
16543;SDS011;8384;47.996;7.786;2024-01-30T00:57:52;3.67;;;2.23;;
16543;SDS011;8384;47.996;7.786;2024-01-30T01:00:17;3.87;;;2.30;;
16543;SDS011;8384;47.996;7.786;2024-01-30T01:02:43;3.13;;;2.30;;
16543;SDS011;8384;47.996;7.786;2024-01-30T01:05:08;3.47;;;2.47;;
16543;SDS011;8384;47.996;7.786;2024-01-30T01:07:34;2.27;;;2.07;;
16543;SDS011;8384;47.996;7.786;2024-01-30T01:09:59;2.90;;;2.17;;
16543;SDS011;8384;47.996;7.786;2024-01-30T01:12:24;2.50;;;2.20;;
16543;SDS011;8384;47.996;7.786;2024-01-30T01:14:50;3.23;;;2.30;;
16543;SDS011;8384;47.996;7.786;2024-01-30T01:17:15;3.73;;;2.87;;
16543;SDS011;8384;47.996;7.786;2024-01-30T01:19:41;4.27;;;3.40;;
16543;SDS011;8384;47.996;7.786;2024-01-30T01:22:06;4.20;;;3.57;;
16543;SDS011;8384;47.996;7.786;2024-01-30T01:24:31;2.47;;;2.10;;
16543;SDS011;8384;47.996;7.786;2024-01-30T01:26:58;3.67;;;2.83;;
16543;SDS011;8384;47.996;7.786;2024-01-30T01:29:23;4.47;;;2.00;;
16543;SDS011;8384;47.996;7.786;2024-01-30T01:31:53;2.40;;;2.10;;
16543;SDS011;8384;47.996;7.786;2024-01-30T01:34:22;3.13;;;2.40;;
16543;SDS011;8384;47.996;7.786;2024-01-30T01:36:48;2.47;;;2.03;;
16543;SDS011;8384;47.996;7.786;2024-01-30T01:39:14;2.03;;;1.63;;
16543;SDS011;8384;47.996;7.786;2024-01-30T01:41:39;2.40;;;1.90;;
16543;SDS011;8384;47.996;7.786;2024-01-30T01:44:04;2.53;;;2.07;;
16543;SDS011;8384;47.996;7.786;2024-01-30T01:46:30;1.97;;;1.70;;
16543;SDS011;8384;47.996;7.786;2024-01-30T01:48:58;1.93;;;1.70;;
16543;SDS011;8384;47.996;7.786;2024-01-30T01:51:24;2.93;;;2.03;;
16543;SDS011;8384;47.996;7.786;2024-01-30T01:53:51;9.93;;;5.77;;
16543;SDS011;8384;47.996;7.786;2024-01-30T01:56:16;9.17;;;6.50;;
16543;SDS011;8384;47.996;7.786;2024-01-30T01:58:41;9.70;;;6.67;;
16543;SDS011;8384;47.996;7.786;2024-01-30T02:01:10;8.00;;;5.80;;
16543;SDS011;8384;47.996;7.786;2024-01-30T02:03:37;7.67;;;5.40;;
16543;SDS011;8384;47.996;7.786;2024-01-30T02:06:03;11.43;;;9.83;;
16543;SDS011;8384;47.996;7.786;2024-01-30T02:08:29;4.77;;;3.70;;
16543;SDS011;8384;47.996;7.786;2024-01-30T02:10:54;2.93;;;2.57;;
16543;SDS011;8384;47.996;7.786;2024-01-30T02:13:21;2.60;;;2.13;;
16543;SDS011;8384;47.996;7.786;2024-01-30T02:15:50;5.10;;;2.70;;
16543;SDS011;8384;47.996;7.786;2024-01-30T02:18:16;2.50;;;2.00;;
16543;SDS011;8384;47.996;7.786;2024-01-30T02:20:41;3.80;;;1.90;;
16543;SDS011;8384;47.996;7.786;2024-01-30T02:23:07;3.57;;;2.13;;
16543;SDS011;8384;47.996;7.786;2024-01-30T02:25:38;1.90;;;1.70;;
16543;SDS011;8384;47.996;7.786;2024-01-30T02:28:09;2.10;;;1.90;;
16543;SDS011;8384;47.996;7.786;2024-01-30T02:30:35;4.00;;;2.17;;
16543;SDS011;8384;47.996;7.786;2024-01-30T02:33:00;2.57;;;2.10;;
16543;SDS011;8384;47.996;7.786;2024-01-30T02:35:26;2.50;;;2.10;;
16543;SDS011;8384;47.996;7.786;2024-01-30T02:37:51;2.10;;;1.90;;
16543;SDS011;8384;47.996;7.786;2024-01-30T02:40:16;1.60;;;1.50;;
16543;SDS011;8384;47.996;7.786;2024-01-30T02:42:41;3.53;;;2.00;;
16543;SDS011;8384;47.996;7.786;2024-01-30T02:45:07;2.87;;;1.73;;
16543;SDS011;8384;47.996;7.786;2024-01-30T02:47:33;2.57;;;1.97;;
16543;SDS011;8384;47.996;7.786;2024-01-30T02:49:58;2.33;;;1.90;;
16543;SDS011;8384;47.996;7.786;2024-01-30T02:52:23;2.43;;;2.13;;
16543;SDS011;8384;47.996;7.786;2024-01-30T02:54:49;2.70;;;1.93;;
16543;SDS011;8384;47.996;7.786;2024-01-30T02:57:14;2.33;;;2.10;;
16543;SDS011;8384;47.996;7.786;2024-01-30T02:59:39;2.27;;;1.93;;
16543;SDS011;8384;47.996;7.786;2024-01-30T03:02:04;3.03;;;1.80;;
16543;SDS011;8384;47.996;7.786;2024-01-30T03:04:30;2.47;;;1.97;;
16543;SDS011;8384;47.996;7.786;2024-01-30T03:06:55;3.80;;;2.20;;
16543;SDS011;8384;47.996;7.786;2024-01-30T03:09:20;1.93;;;1.70;;
16543;SDS011;8384;47.996;7.786;2024-01-30T03:11:46;3.80;;;2.10;;
16543;SDS011;8384;47.996;7.786;2024-01-30T03:14:11;2.40;;;1.87;;
16543;SDS011;8384;47.996;7.786;2024-01-30T03:16:37;2.20;;;2.00;;
16543;SDS011;8384;47.996;7.786;2024-01-30T03:19:03;2.10;;;1.90;;
16543;SDS011;8384;47.996;7.786;2024-01-30T03:21:28;3.57;;;2.20;;
16543;SDS011;8384;47.996;7.786;2024-01-30T03:23:54;3.40;;;1.90;;
16543;SDS011;8384;47.996;7.786;2024-01-30T03:26:19;2.60;;;2.23;;
16543;SDS011;8384;47.996;7.786;2024-01-30T03:28:44;2.13;;;1.93;;
16543;SDS011;8384;47.996;7.786;2024-01-30T03:31:09;2.37;;;2.10;;
16543;SDS011;8384;47.996;7.786;2024-01-30T03:33:36;3.40;;;2.43;;
16543;SDS011;8384;47.996;7.786;2024-01-30T03:36:04;2.50;;;2.30;;
16543;SDS011;8384;47.996;7.786;2024-01-30T03:38:30;4.37;;;2.63;;
16543;SDS011;8384;47.996;7.786;2024-01-30T03:40:57;4.93;;;2.53;;
16543;SDS011;8384;47.996;7.786;2024-01-30T03:43:23;3.10;;;2.30;;
16543;SDS011;8384;47.996;7.786;2024-01-30T03:45:48;3.87;;;2.73;;
16543;SDS011;8384;47.996;7.786;2024-01-30T03:48:13;3.33;;;2.70;;
16543;SDS011;8384;47.996;7.786;2024-01-30T03:50:39;3.73;;;2.50;;
16543;SDS011;8384;47.996;7.786;2024-01-30T03:53:04;3.77;;;2.87;;
16543;SDS011;8384;47.996;7.786;2024-01-30T03:55:29;3.43;;;2.77;;
16543;SDS011;8384;47.996;7.786;2024-01-30T03:57:54;3.10;;;2.80;;
16543;SDS011;8384;47.996;7.786;2024-01-30T04:00:20;3.80;;;2.37;;
16543;SDS011;8384;47.996;7.786;2024-01-30T04:02:45;3.43;;;2.87;;
16543;SDS011;8384;47.996;7.786;2024-01-30T04:05:10;4.00;;;2.80;;
16543;SDS011;8384;47.996;7.786;2024-01-30T04:07:35;3.10;;;2.77;;
16543;SDS011;8384;47.996;7.786;2024-01-30T04:10:01;2.83;;;2.53;;
16543;SDS011;8384;47.996;7.786;2024-01-30T04:12:26;3.77;;;2.73;;
16543;SDS011;8384;47.996;7.786;2024-01-30T04:14:51;2.83;;;2.60;;
16543;SDS011;8384;47.996;7.786;2024-01-30T04:17:16;4.60;;;2.37;;
16543;SDS011;8384;47.996;7.786;2024-01-30T04:19:42;2.50;;;2.30;;
16543;SDS011;8384;47.996;7.786;2024-01-30T04:22:07;2.40;;;2.20;;
16543;SDS011;8384;47.996;7.786;2024-01-30T04:24:32;2.63;;;2.40;;
16543;SDS011;8384;47.996;7.786;2024-01-30T04:26:57;4.13;;;2.47;;
16543;SDS011;8384;47.996;7.786;2024-01-30T04:29:23;4.90;;;2.57;;
16543;SDS011;8384;47.996;7.786;2024-01-30T04:31:48;2.93;;;2.40;;
16543;SDS011;8384;47.996;7.786;2024-01-30T04:34:13;3.10;;;2.10;;
16543;SDS011;8384;47.996;7.786;2024-01-30T04:36:38;2.60;;;2.30;;
16543;SDS011;8384;47.996;7.786;2024-01-30T04:39:04;2.30;;;2.10;;
16543;SDS011;8384;47.996;7.786;2024-01-30T04:41:29;2.87;;;2.23;;
16543;SDS011;8384;47.996;7.786;2024-01-30T04:43:56;3.23;;;2.47;;
16543;SDS011;8384;47.996;7.786;2024-01-30T04:46:21;3.20;;;2.10;;
16543;SDS011;8384;47.996;7.786;2024-01-30T04:48:47;4.57;;;2.23;;
16543;SDS011;8384;47.996;7.786;2024-01-30T04:51:12;3.83;;;2.40;;
16543;SDS011;8384;47.996;7.786;2024-01-30T04:53:37;3.13;;;2.33;;
16543;SDS011;8384;47.996;7.786;2024-01-30T04:56:04;3.47;;;2.40;;
16543;SDS011;8384;47.996;7.786;2024-01-30T04:58:30;2.37;;;2.17;;
16543;SDS011;8384;47.996;7.786;2024-01-30T05:00:55;3.30;;;2.43;;
16543;SDS011;8384;47.996;7.786;2024-01-30T05:03:21;2.30;;;2.10;;
16543;SDS011;8384;47.996;7.786;2024-01-30T05:05:47;2.87;;;2.23;;
16543;SDS011;8384;47.996;7.786;2024-01-30T05:08:13;2.57;;;2.00;;
16543;SDS011;8384;47.996;7.786;2024-01-30T05:10:38;2.10;;;1.90;;
16543;SDS011;8384;47.996;7.786;2024-01-30T05:13:03;2.10;;;1.87;;
16543;SDS011;8384;47.996;7.786;2024-01-30T05:15:28;3.57;;;2.17;;
16543;SDS011;8384;47.996;7.786;2024-01-30T05:17:54;4.00;;;2.30;;
16543;SDS011;8384;47.996;7.786;2024-01-30T05:20:19;2.40;;;2.20;;
16543;SDS011;8384;47.996;7.786;2024-01-30T05:22:45;2.70;;;2.47;;
16543;SDS011;8384;47.996;7.786;2024-01-30T05:25:11;2.17;;;1.97;;
16543;SDS011;8384;47.996;7.786;2024-01-30T05:27:37;3.03;;;2.30;;
16543;SDS011;8384;47.996;7.786;2024-01-30T05:30:02;4.07;;;2.47;;
16543;SDS011;8384;47.996;7.786;2024-01-30T05:32:28;3.93;;;2.10;;
16543;SDS011;8384;47.996;7.786;2024-01-30T05:34:53;3.10;;;2.50;;
16543;SDS011;8384;47.996;7.786;2024-01-30T05:37:18;2.40;;;2.20;;
16543;SDS011;8384;47.996;7.786;2024-01-30T05:39:44;2.83;;;2.47;;
16543;SDS011;8384;47.996;7.786;2024-01-30T05:42:09;2.13;;;1.93;;
16543;SDS011;8384;47.996;7.786;2024-01-30T05:44:35;2.93;;;2.27;;
16543;SDS011;8384;47.996;7.786;2024-01-30T05:47:00;2.93;;;2.50;;
16543;SDS011;8384;47.996;7.786;2024-01-30T05:49:25;2.90;;;2.27;;
16543;SDS011;8384;47.996;7.786;2024-01-30T05:51:50;3.60;;;2.70;;
16543;SDS011;8384;47.996;7.786;2024-01-30T05:54:16;2.77;;;2.00;;
16543;SDS011;8384;47.996;7.786;2024-01-30T05:56:41;2.50;;;2.27;;
16543;SDS011;8384;47.996;7.786;2024-01-30T05:59:06;2.87;;;2.50;;
16543;SDS011;8384;47.996;7.786;2024-01-30T06:01:31;3.30;;;2.50;;
16543;SDS011;8384;47.996;7.786;2024-01-30T06:03:57;3.23;;;2.47;;
16543;SDS011;8384;47.996;7.786;2024-01-30T06:06:22;2.93;;;2.60;;
16543;SDS011;8384;47.996;7.786;2024-01-30T06:08:47;3.03;;;2.73;;
16543;SDS011;8384;47.996;7.786;2024-01-30T06:11:12;3.10;;;2.60;;
16543;SDS011;8384;47.996;7.786;2024-01-30T06:13:38;4.83;;;2.83;;
16543;SDS011;8384;47.996;7.786;2024-01-30T06:16:03;3.30;;;2.50;;
16543;SDS011;8384;47.996;7.786;2024-01-30T06:18:29;3.30;;;2.50;;
16543;SDS011;8384;47.996;7.786;2024-01-30T06:20:56;2.77;;;2.50;;
16543;SDS011;8384;47.996;7.786;2024-01-30T06:23:21;4.17;;;2.73;;
16543;SDS011;8384;47.996;7.786;2024-01-30T06:25:46;4.83;;;2.70;;
16543;SDS011;8384;47.996;7.786;2024-01-30T06:28:12;3.07;;;2.73;;
16543;SDS011;8384;47.996;7.786;2024-01-30T06:30:37;3.73;;;2.90;;
16543;SDS011;8384;47.996;7.786;2024-01-30T06:33:02;4.70;;;2.97;;
16543;SDS011;8384;47.996;7.786;2024-01-30T06:35:28;3.73;;;2.93;;
16543;SDS011;8384;47.996;7.786;2024-01-30T06:37:53;3.80;;;2.90;;
16543;SDS011;8384;47.996;7.786;2024-01-30T06:40:19;2.97;;;2.67;;
16543;SDS011;8384;47.996;7.786;2024-01-30T06:42:44;3.33;;;2.93;;
16543;SDS011;8384;47.996;7.786;2024-01-30T06:45:09;3.77;;;3.20;;
16543;SDS011;8384;47.996;7.786;2024-01-30T06:47:35;4.73;;;3.20;;
16543;SDS011;8384;47.996;7.786;2024-01-30T06:50:00;3.93;;;3.13;;
16543;SDS011;8384;47.996;7.786;2024-01-30T06:52:27;3.13;;;2.77;;
16543;SDS011;8384;47.996;7.786;2024-01-30T06:54:52;3.97;;;3.00;;
16543;SDS011;8384;47.996;7.786;2024-01-30T06:57:17;3.70;;;3.27;;
16543;SDS011;8384;47.996;7.786;2024-01-30T06:59:43;3.60;;;2.57;;
16543;SDS011;8384;47.996;7.786;2024-01-30T07:02:09;4.03;;;3.30;;
16543;SDS011;8384;47.996;7.786;2024-01-30T07:04:35;3.63;;;3.30;;
16543;SDS011;8384;47.996;7.786;2024-01-30T07:07:02;4.27;;;3.13;;
16543;SDS011;8384;47.996;7.786;2024-01-30T07:09:27;4.23;;;3.50;;
16543;SDS011;8384;47.996;7.786;2024-01-30T07:11:54;3.63;;;2.97;;
16543;SDS011;8384;47.996;7.786;2024-01-30T07:14:20;4.73;;;2.73;;
16543;SDS011;8384;47.996;7.786;2024-01-30T07:16:45;3.83;;;2.93;;
16543;SDS011;8384;47.996;7.786;2024-01-30T07:19:11;3.43;;;3.13;;
16543;SDS011;8384;47.996;7.786;2024-01-30T07:21:36;4.77;;;2.90;;
16543;SDS011;8384;47.996;7.786;2024-01-30T07:24:01;4.07;;;3.20;;
16543;SDS011;8384;47.996;7.786;2024-01-30T07:26:27;4.33;;;3.03;;
16543;SDS011;8384;47.996;7.786;2024-01-30T07:28:52;3.57;;;2.80;;
16543;SDS011;8384;47.996;7.786;2024-01-30T07:31:17;3.53;;;3.00;;
16543;SDS011;8384;47.996;7.786;2024-01-30T07:33:45;3.33;;;3.03;;
16543;SDS011;8384;47.996;7.786;2024-01-30T07:36:10;3.97;;;3.20;;
16543;SDS011;8384;47.996;7.786;2024-01-30T07:38:36;3.20;;;2.90;;
16543;SDS011;8384;47.996;7.786;2024-01-30T07:41:01;3.87;;;3.13;;
16543;SDS011;8384;47.996;7.786;2024-01-30T07:43:26;4.27;;;3.20;;
16543;SDS011;8384;47.996;7.786;2024-01-30T07:45:52;5.17;;;3.13;;
16543;SDS011;8384;47.996;7.786;2024-01-30T07:48:17;3.37;;;3.07;;
16543;SDS011;8384;47.996;7.786;2024-01-30T07:50:42;3.37;;;3.07;;
16543;SDS011;8384;47.996;7.786;2024-01-30T07:53:07;4.70;;;3.50;;
16543;SDS011;8384;47.996;7.786;2024-01-30T07:55:33;4.50;;;3.20;;
16543;SDS011;8384;47.996;7.786;2024-01-30T07:57:58;3.63;;;3.30;;
16543;SDS011;8384;47.996;7.786;2024-01-30T08:00:26;3.27;;;2.90;;
16543;SDS011;8384;47.996;7.786;2024-01-30T08:02:54;3.67;;;3.37;;
16543;SDS011;8384;47.996;7.786;2024-01-30T08:05:20;5.00;;;3.20;;
16543;SDS011;8384;47.996;7.786;2024-01-30T08:07:47;3.83;;;3.30;;
16543;SDS011;8384;47.996;7.786;2024-01-30T08:10:13;4.70;;;3.00;;
16543;SDS011;8384;47.996;7.786;2024-01-30T08:12:38;3.30;;;3.00;;
16543;SDS011;8384;47.996;7.786;2024-01-30T08:15:04;4.70;;;3.00;;
16543;SDS011;8384;47.996;7.786;2024-01-30T08:17:29;4.47;;;3.10;;
16543;SDS011;8384;47.996;7.786;2024-01-30T08:19:55;4.33;;;3.17;;
16543;SDS011;8384;47.996;7.786;2024-01-30T08:22:20;4.43;;;3.20;;
16543;SDS011;8384;47.996;7.786;2024-01-30T08:24:45;3.13;;;2.83;;
16543;SDS011;8384;47.996;7.786;2024-01-30T08:27:10;3.20;;;2.90;;
16543;SDS011;8384;47.996;7.786;2024-01-30T08:29:37;3.30;;;2.97;;
16543;SDS011;8384;47.996;7.786;2024-01-30T08:32:03;3.87;;;3.03;;
16543;SDS011;8384;47.996;7.786;2024-01-30T08:34:29;3.80;;;3.40;;
16543;SDS011;8384;47.996;7.786;2024-01-30T08:36:54;4.20;;;2.70;;
16543;SDS011;8384;47.996;7.786;2024-01-30T08:39:20;2.90;;;2.60;;
16543;SDS011;8384;47.996;7.786;2024-01-30T08:41:45;3.83;;;3.20;;
16543;SDS011;8384;47.996;7.786;2024-01-30T08:44:10;3.77;;;3.20;;
16543;SDS011;8384;47.996;7.786;2024-01-30T08:46:36;3.67;;;3.00;;
16543;SDS011;8384;47.996;7.786;2024-01-30T08:49:01;3.60;;;2.80;;
16543;SDS011;8384;47.996;7.786;2024-01-30T08:51:27;3.37;;;3.07;;
16543;SDS011;8384;47.996;7.786;2024-01-30T08:53:53;4.13;;;3.37;;
16543;SDS011;8384;47.996;7.786;2024-01-30T08:56:18;5.37;;;3.43;;
16543;SDS011;8384;47.996;7.786;2024-01-30T08:58:44;3.63;;;2.90;;
16543;SDS011;8384;47.996;7.786;2024-01-30T09:01:09;3.93;;;3.00;;
16543;SDS011;8384;47.996;7.786;2024-01-30T09:03:34;3.47;;;3.13;;
16543;SDS011;8384;47.996;7.786;2024-01-30T09:06:00;5.37;;;3.00;;
16543;SDS011;8384;47.996;7.786;2024-01-30T09:08:25;3.77;;;3.03;;
16543;SDS011;8384;47.996;7.786;2024-01-30T09:10:50;3.10;;;2.80;;
16543;SDS011;8384;47.996;7.786;2024-01-30T09:13:15;3.83;;;2.90;;
16543;SDS011;8384;47.996;7.786;2024-01-30T09:15:41;3.73;;;3.03;;
16543;SDS011;8384;47.996;7.786;2024-01-30T09:18:06;3.77;;;3.13;;
16543;SDS011;8384;47.996;7.786;2024-01-30T09:20:32;3.43;;;3.10;;
16543;SDS011;8384;47.996;7.786;2024-01-30T09:22:57;3.30;;;2.70;;
16543;SDS011;8384;47.996;7.786;2024-01-30T09:25:22;4.37;;;3.07;;
16543;SDS011;8384;47.996;7.786;2024-01-30T09:27:47;3.33;;;3.03;;
16543;SDS011;8384;47.996;7.786;2024-01-30T09:30:13;4.13;;;3.03;;
16543;SDS011;8384;47.996;7.786;2024-01-30T09:32:39;3.43;;;2.93;;
16543;SDS011;8384;47.996;7.786;2024-01-30T09:35:05;4.93;;;3.40;;
16543;SDS011;8384;47.996;7.786;2024-01-30T09:37:31;5.23;;;3.47;;
16543;SDS011;8384;47.996;7.786;2024-01-30T09:39:56;3.40;;;2.67;;
16543;SDS011;8384;47.996;7.786;2024-01-30T09:42:31;3.50;;;2.80;;
16543;SDS011;8384;47.996;7.786;2024-01-30T09:45:02;3.13;;;2.83;;
16543;SDS011;8384;47.996;7.786;2024-01-30T09:47:32;4.73;;;3.10;;
16543;SDS011;8384;47.996;7.786;2024-01-30T09:50:03;4.70;;;3.57;;
16543;SDS011;8384;47.996;7.786;2024-01-30T09:52:30;4.07;;;2.90;;
16543;SDS011;8384;47.996;7.786;2024-01-30T09:54:56;3.40;;;2.87;;
16543;SDS011;8384;47.996;7.786;2024-01-30T09:57:24;4.70;;;3.10;;
16543;SDS011;8384;47.996;7.786;2024-01-30T09:59:51;4.57;;;2.93;;
16543;SDS011;8384;47.996;7.786;2024-01-30T10:02:17;4.50;;;3.10;;
16543;SDS011;8384;47.996;7.786;2024-01-30T10:04:43;4.83;;;3.27;;
16543;SDS011;8384;47.996;7.786;2024-01-30T10:07:09;4.03;;;2.90;;
16543;SDS011;8384;47.996;7.786;2024-01-30T10:09:36;4.23;;;2.87;;
16543;SDS011;8384;47.996;7.786;2024-01-30T10:12:02;4.70;;;3.20;;
16543;SDS011;8384;47.996;7.786;2024-01-30T10:14:28;4.17;;;2.97;;
16543;SDS011;8384;47.996;7.786;2024-01-30T10:16:54;4.43;;;3.13;;
16543;SDS011;8384;47.996;7.786;2024-01-30T10:19:20;3.67;;;3.30;;
16543;SDS011;8384;47.996;7.786;2024-01-30T10:21:45;7.30;;;3.67;;
16543;SDS011;8384;47.996;7.786;2024-01-30T10:24:11;5.33;;;3.20;;
16543;SDS011;8384;47.996;7.786;2024-01-30T10:26:38;3.57;;;3.07;;
16543;SDS011;8384;47.996;7.786;2024-01-30T10:29:04;4.83;;;3.43;;
16543;SDS011;8384;47.996;7.786;2024-01-30T10:31:29;5.87;;;3.73;;
16543;SDS011;8384;47.996;7.786;2024-01-30T10:33:55;3.40;;;3.10;;
16543;SDS011;8384;47.996;7.786;2024-01-30T10:36:20;3.67;;;2.97;;
16543;SDS011;8384;47.996;7.786;2024-01-30T10:38:53;3.77;;;3.30;;
16543;SDS011;8384;47.996;7.786;2024-01-30T10:41:25;4.47;;;3.53;;
16543;SDS011;8384;47.996;7.786;2024-01-30T10:44:01;5.33;;;3.00;;
16543;SDS011;8384;47.996;7.786;2024-01-30T10:46:31;4.30;;;3.17;;
16543;SDS011;8384;47.996;7.786;2024-01-30T10:48:58;3.40;;;3.00;;
16543;SDS011;8384;47.996;7.786;2024-01-30T10:51:28;3.97;;;2.93;;
16543;SDS011;8384;47.996;7.786;2024-01-30T10:53:53;4.77;;;3.00;;
16543;SDS011;8384;47.996;7.786;2024-01-30T10:56:21;3.67;;;2.67;;
16543;SDS011;8384;47.996;7.786;2024-01-30T10:58:47;3.50;;;3.10;;
16543;SDS011;8384;47.996;7.786;2024-01-30T11:01:14;3.27;;;2.83;;
16543;SDS011;8384;47.996;7.786;2024-01-30T11:03:40;3.53;;;2.90;;
16543;SDS011;8384;47.996;7.786;2024-01-30T11:06:10;3.20;;;2.90;;
16543;SDS011;8384;47.996;7.786;2024-01-30T11:08:38;3.23;;;2.57;;
16543;SDS011;8384;47.996;7.786;2024-01-30T11:11:04;3.23;;;2.73;;
16543;SDS011;8384;47.996;7.786;2024-01-30T11:13:34;3.43;;;2.60;;
16543;SDS011;8384;47.996;7.786;2024-01-30T11:16:00;2.80;;;2.60;;
16543;SDS011;8384;47.996;7.786;2024-01-30T11:18:26;3.17;;;2.87;;
16543;SDS011;8384;47.996;7.786;2024-01-30T11:20:58;2.87;;;2.33;;
16543;SDS011;8384;47.996;7.786;2024-01-30T11:23:27;4.83;;;2.60;;
16543;SDS011;8384;47.996;7.786;2024-01-30T11:25:53;4.50;;;2.60;;
16543;SDS011;8384;47.996;7.786;2024-01-30T11:28:21;3.77;;;2.90;;
16543;SDS011;8384;47.996;7.786;2024-01-30T11:30:47;2.53;;;2.30;;
16543;SDS011;8384;47.996;7.786;2024-01-30T11:33:13;3.20;;;2.60;;
16543;SDS011;8384;47.996;7.786;2024-01-30T11:35:42;3.30;;;2.70;;
16543;SDS011;8384;47.996;7.786;2024-01-30T11:38:10;4.20;;;2.67;;
16543;SDS011;8384;47.996;7.786;2024-01-30T11:40:38;2.73;;;2.40;;
16543;SDS011;8384;47.996;7.786;2024-01-30T11:43:05;3.20;;;2.47;;
16543;SDS011;8384;47.996;7.786;2024-01-30T11:45:31;2.63;;;2.37;;
16543;SDS011;8384;47.996;7.786;2024-01-30T11:47:57;2.90;;;2.60;;
16543;SDS011;8384;47.996;7.786;2024-01-30T11:50:28;3.00;;;2.50;;
16543;SDS011;8384;47.996;7.786;2024-01-30T11:52:54;4.03;;;2.63;;
16543;SDS011;8384;47.996;7.786;2024-01-30T11:55:20;3.03;;;2.57;;
16543;SDS011;8384;47.996;7.786;2024-01-30T11:57:45;3.70;;;2.63;;
16543;SDS011;8384;47.996;7.786;2024-01-30T12:00:19;3.30;;;2.60;;
16543;SDS011;8384;47.996;7.786;2024-01-30T12:02:49;2.90;;;2.47;;
16543;SDS011;8384;47.996;7.786;2024-01-30T12:05:16;3.07;;;2.77;;
16543;SDS011;8384;47.996;7.786;2024-01-30T12:07:44;2.43;;;2.20;;
16543;SDS011;8384;47.996;7.786;2024-01-30T12:10:09;2.57;;;2.23;;
16543;SDS011;8384;47.996;7.786;2024-01-30T12:12:36;3.63;;;2.27;;
16543;SDS011;8384;47.996;7.786;2024-01-30T12:15:01;3.33;;;2.67;;
16543;SDS011;8384;47.996;7.786;2024-01-30T12:17:28;3.63;;;2.60;;
16543;SDS011;8384;47.996;7.786;2024-01-30T12:22:40;4.40;;;2.87;;
16543;SDS011;8384;47.996;7.786;2024-01-30T12:25:09;3.40;;;3.07;;
16543;SDS011;8384;47.996;7.786;2024-01-30T12:27:38;3.60;;;2.77;;
16543;SDS011;8384;47.996;7.786;2024-01-30T12:30:08;3.13;;;2.77;;
16543;SDS011;8384;47.996;7.786;2024-01-30T12:32:39;3.47;;;2.90;;
16543;SDS011;8384;47.996;7.786;2024-01-30T12:35:15;3.90;;;3.17;;
16543;SDS011;8384;47.996;7.786;2024-01-30T12:37:45;4.40;;;2.80;;
16543;SDS011;8384;47.996;7.786;2024-01-30T12:40:11;3.30;;;3.00;;
16543;SDS011;8384;47.996;7.786;2024-01-30T12:42:39;3.37;;;2.97;;
16543;SDS011;8384;47.996;7.786;2024-01-30T12:45:08;3.30;;;3.00;;
16543;SDS011;8384;47.996;7.786;2024-01-30T12:47:33;4.40;;;2.83;;
16543;SDS011;8384;47.996;7.786;2024-01-30T12:49:59;3.30;;;2.90;;
16543;SDS011;8384;47.996;7.786;2024-01-30T12:52:24;3.70;;;2.97;;
16543;SDS011;8384;47.996;7.786;2024-01-30T12:54:50;3.10;;;2.80;;
16543;SDS011;8384;47.996;7.786;2024-01-30T12:57:16;4.03;;;2.70;;
16543;SDS011;8384;47.996;7.786;2024-01-30T12:59:42;3.00;;;2.70;;
16543;SDS011;8384;47.996;7.786;2024-01-30T13:02:07;3.20;;;2.43;;
16543;SDS011;8384;47.996;7.786;2024-01-30T13:04:33;3.00;;;2.60;;
16543;SDS011;8384;47.996;7.786;2024-01-30T13:06:59;3.70;;;2.87;;
16543;SDS011;8384;47.996;7.786;2024-01-30T13:09:25;4.07;;;2.73;;
16543;SDS011;8384;47.996;7.786;2024-01-30T13:11:51;3.93;;;2.50;;
16543;SDS011;8384;47.996;7.786;2024-01-30T13:14:16;4.43;;;2.70;;
16543;SDS011;8384;47.996;7.786;2024-01-30T13:16:42;3.50;;;2.67;;
16543;SDS011;8384;47.996;7.786;2024-01-30T13:19:07;3.50;;;2.70;;
16543;SDS011;8384;47.996;7.786;2024-01-30T13:21:32;3.43;;;2.47;;
16543;SDS011;8384;47.996;7.786;2024-01-30T13:23:58;2.57;;;2.37;;
16543;SDS011;8384;47.996;7.786;2024-01-30T13:26:23;3.43;;;2.80;;
16543;SDS011;8384;47.996;7.786;2024-01-30T13:28:48;3.30;;;2.83;;
16543;SDS011;8384;47.996;7.786;2024-01-30T13:31:14;3.03;;;2.73;;
16543;SDS011;8384;47.996;7.786;2024-01-30T13:33:40;3.23;;;2.70;;
16543;SDS011;8384;47.996;7.786;2024-01-30T13:36:05;4.47;;;3.00;;
16543;SDS011;8384;47.996;7.786;2024-01-30T13:38:32;3.53;;;2.83;;
16543;SDS011;8384;47.996;7.786;2024-01-30T13:40:57;3.10;;;2.60;;
16543;SDS011;8384;47.996;7.786;2024-01-30T13:43:23;3.87;;;2.77;;
16543;SDS011;8384;47.996;7.786;2024-01-30T13:45:48;3.03;;;2.73;;
16543;SDS011;8384;47.996;7.786;2024-01-30T13:48:13;4.97;;;3.03;;
16543;SDS011;8384;47.996;7.786;2024-01-30T13:50:38;3.73;;;3.03;;
16543;SDS011;8384;47.996;7.786;2024-01-30T13:53:04;3.70;;;2.80;;
16543;SDS011;8384;47.996;7.786;2024-01-30T13:55:29;3.57;;;2.80;;
16543;SDS011;8384;47.996;7.786;2024-01-30T13:57:55;3.37;;;3.07;;
16543;SDS011;8384;47.996;7.786;2024-01-30T14:00:21;3.30;;;2.77;;
16543;SDS011;8384;47.996;7.786;2024-01-30T14:02:47;3.97;;;3.10;;
16543;SDS011;8384;47.996;7.786;2024-01-30T14:05:12;3.97;;;3.10;;
16543;SDS011;8384;47.996;7.786;2024-01-30T14:07:38;2.80;;;2.50;;
16543;SDS011;8384;47.996;7.786;2024-01-30T14:10:07;2.90;;;2.70;;
16543;SDS011;8384;47.996;7.786;2024-01-30T14:12:35;3.53;;;3.00;;
16543;SDS011;8384;47.996;7.786;2024-01-30T14:15:01;3.23;;;2.70;;
16543;SDS011;8384;47.996;7.786;2024-01-30T14:17:26;3.50;;;3.20;;
16543;SDS011;8384;47.996;7.786;2024-01-30T14:19:51;3.03;;;2.70;;
16543;SDS011;8384;47.996;7.786;2024-01-30T14:22:16;3.87;;;3.03;;
16543;SDS011;8384;47.996;7.786;2024-01-30T14:24:42;4.13;;;3.43;;
16543;SDS011;8384;47.996;7.786;2024-01-30T14:27:08;3.60;;;3.30;;
16543;SDS011;8384;47.996;7.786;2024-01-30T14:29:35;3.40;;;3.10;;
16543;SDS011;8384;47.996;7.786;2024-01-30T14:32:00;4.77;;;3.17;;
16543;SDS011;8384;47.996;7.786;2024-01-30T14:34:25;5.33;;;3.00;;
16543;SDS011;8384;47.996;7.786;2024-01-30T14:36:50;3.77;;;3.27;;
16543;SDS011;8384;47.996;7.786;2024-01-30T14:39:16;4.77;;;3.20;;
16543;SDS011;8384;47.996;7.786;2024-01-30T14:41:41;4.97;;;3.30;;
16543;SDS011;8384;47.996;7.786;2024-01-30T14:44:06;3.23;;;2.87;;
16543;SDS011;8384;47.996;7.786;2024-01-30T14:46:32;4.80;;;3.37;;
16543;SDS011;8384;47.996;7.786;2024-01-30T14:48:58;3.67;;;3.20;;
16543;SDS011;8384;47.996;7.786;2024-01-30T14:51:24;3.83;;;2.97;;
16543;SDS011;8384;47.996;7.786;2024-01-30T14:53:49;3.43;;;2.90;;
16543;SDS011;8384;47.996;7.786;2024-01-30T14:56:14;3.47;;;3.17;;